Time;durP1;ratioP1;P1;durP2;ratioP2;P2;SDS_P1;SDS_P2;PMS_P1;PMS_P2;Temp;Humidity;BMP_temperature;BMP_pressure;BME280_temperature;BME280_humidity;BME280_pressure;Samples;Min_cycle;Max_cycle;Signal;HPM_P1;HPM_P2
2023/02/05 00:00:38;;;;;;;10.63;7.13;;;;;;;3.70;87.45;100752.56;5011155;28;103362;-74
2023/02/05 00:03:05;;;;;;;9.70;6.77;;;;;;;3.82;86.92;100735.84;5010509;28;103285;-74
2023/02/05 00:05:33;;;;;;;14.07;7.07;;;;;;;3.92;85.64;100740.97;5012201;28;102970;-73
2023/02/05 00:08:01;;;;;;;14.10;8.57;;;;;;;3.48;86.28;100740.66;5012953;28;102619;-74
2023/02/05 00:10:31;;;;;;;12.87;7.60;;;;;;;3.31;88.08;100750.41;5007295;27;102686;-73
2023/02/05 00:12:59;;;;;;;15.37;8.80;;;;;;;2.93;89.70;100751.66;5010283;27;104154;-74
2023/02/05 00:15:26;;;;;;;22.73;12.57;;;;;;;2.76;91.36;100748.31;5006570;27;102801;-74
2023/02/05 00:17:54;;;;;;;14.13;10.40;;;;;;;2.78;91.07;100741.34;5005927;27;103264;-74
2023/02/05 00:20:22;;;;;;;16.00;11.20;;;;;;;3.24;90.61;100735.69;4999898;28;103676;-74
2023/02/05 00:22:50;;;;;;;13.53;8.60;;;;;;;3.49;89.22;100734.53;5004079;28;103260;-75
2023/02/05 00:25:18;;;;;;;17.27;10.43;;;;;;;2.95;89.57;100727.28;5009883;28;102773;-73
2023/02/05 00:27:47;;;;;;;14.23;9.07;;;;;;;2.47;92.85;100736.41;5005647;28;104205;-75
2023/02/05 00:30:14;;;;;;;14.73;8.57;;;;;;;2.80;92.40;100725.69;5000393;28;103323;-73
2023/02/05 00:32:42;;;;;;;12.43;8.13;;;;;;;2.80;91.96;100723.94;5001394;28;103292;-75
2023/02/05 00:35:10;;;;;;;10.97;7.60;;;;;;;2.85;91.44;100724.75;5001854;28;102813;-75
2023/02/05 00:37:38;;;;;;;16.30;9.97;;;;;;;2.91;91.28;100718.59;5008427;28;102725;-73
2023/02/05 00:40:06;;;;;;;18.80;9.87;;;;;;;3.09;90.38;100720.19;5008390;28;104482;-74
2023/02/05 00:42:37;;;;;;;15.07;9.30;;;;;;;2.92;90.84;100721.19;5011498;27;104135;-75
2023/02/05 00:45:07;;;;;;;13.13;8.93;;;;;;;2.93;90.71;100728.16;5006088;28;103155;-74
2023/02/05 00:47:35;;;;;;;16.60;11.90;;;;;;;2.66;92.03;100724.94;5012938;28;102681;-74
2023/02/05 00:50:05;;;;;;;18.63;12.57;;;;;;;2.64;92.66;100731.91;5007363;28;103270;-74
2023/02/05 00:52:33;;;;;;;15.37;10.83;;;;;;;2.96;92.88;100732.47;5008404;28;104320;-74
2023/02/05 00:55:01;;;;;;;15.13;8.70;;;;;;;2.96;91.26;100726.38;5007326;28;102649;-74
2023/02/05 00:57:29;;;;;;;14.27;8.40;;;;;;;2.85;91.98;100727.38;5005455;28;102903;-74
2023/02/05 00:59:56;;;;;;;15.20;8.53;;;;;;;2.71;92.33;100728.38;5002878;28;103814;-74
2023/02/05 01:02:26;;;;;;;16.57;8.57;;;;;;;2.76;92.82;100727.44;5006983;27;103332;-75
2023/02/05 01:04:54;;;;;;;8.60;7.70;;;;;;;2.91;92.09;100722.09;5013703;28;103394;-75
2023/02/05 01:07:22;;;;;;;12.20;7.10;;;;;;;3.11;90.97;100718.41;5009460;28;102840;-74
2023/02/05 01:09:50;;;;;;;9.97;6.97;;;;;;;3.37;90.33;100713.75;5007487;28;104104;-74
2023/02/05 01:12:20;;;;;;;10.67;7.30;;;;;;;3.41;89.64;100712.84;5008569;28;103223;-74
2023/02/05 01:14:48;;;;;;;9.60;7.10;;;;;;;3.48;88.83;100714.50;5007339;28;102638;-74
2023/02/05 01:17:16;;;;;;;10.40;7.37;;;;;;;3.35;89.20;100712.91;5008084;28;103203;-74
2023/02/05 01:19:45;;;;;;;8.40;6.53;;;;;;;3.60;87.72;100706.50;5011444;28;103496;-74
2023/02/05 01:22:13;;;;;;;8.00;5.67;;;;;;;3.88;87.54;100709.63;5011286;27;104339;-74
2023/02/05 01:24:41;;;;;;;7.80;6.33;;;;;;;4.12;85.59;100692.72;5008210;27;102784;-74
2023/02/05 01:27:08;;;;;;;10.53;7.20;;;;;;;3.93;85.29;100699.97;5014724;28;103905;-75
2023/02/05 01:29:36;;;;;;;11.03;7.13;;;;;;;3.87;85.47;100694.81;5017762;27;103372;-74
2023/02/05 01:32:05;;;;;;;10.80;7.13;;;;;;;3.73;86.27;100700.25;5007882;27;104208;-74
2023/02/05 01:34:32;;;;;;;8.90;6.00;;;;;;;3.79;86.55;100699.31;5016397;27;102713;-75
2023/02/05 01:37:02;;;;;;;9.27;6.80;;;;;;;3.80;85.76;100707.13;5009472;27;102983;-74
2023/02/05 01:39:29;;;;;;;10.47;7.53;;;;;;;3.67;87.04;100700.31;5015466;27;103856;-74
2023/02/05 01:41:57;;;;;;;11.33;6.97;;;;;;;3.52;86.76;100700.50;5005920;28;103630;-74
2023/02/05 01:44:25;;;;;;;12.50;8.07;;;;;;;3.71;86.87;100690.66;5007106;28;102696;-75
2023/02/05 01:46:55;;;;;;;11.40;7.43;;;;;;;3.70;86.07;100684.59;5009785;28;103981;-74
2023/02/05 01:49:28;;;;;;;10.90;7.63;;;;;;;3.65;86.69;100681.16;5008722;28;103211;-74
2023/02/05 01:51:59;;;;;;;12.03;7.87;;;;;;;3.80;86.69;100672.25;5017453;28;103392;-74
2023/02/05 01:54:30;;;;;;;12.37;8.60;;;;;;;3.29;87.71;100677.25;5022869;27;102771;-74
2023/02/05 01:57:03;;;;;;;16.40;10.30;;;;;;;3.09;89.22;100679.22;5006254;28;102750;-74
2023/02/05 01:59:35;;;;;;;22.20;14.53;;;;;;;2.87;90.40;100678.59;5005897;28;103072;-74
2023/02/05 02:02:06;;;;;;;22.53;14.53;;;;;;;3.25;89.57;100672.09;5020421;27;103231;-73
2023/02/05 02:04:39;;;;;;;23.70;16.40;;;;;;;3.33;89.26;100657.19;5005150;28;102733;-73
2023/02/05 02:07:08;;;;;;;21.13;14.20;;;;;;;3.19;88.54;100665.19;5020825;27;104093;-74
2023/02/05 02:09:39;;;;;;;16.47;11.90;;;;;;;2.85;90.50;100664.72;5008145;28;103376;-71
2023/02/05 02:12:08;;;;;;;31.13;20.00;;;;;;;3.14;90.15;100653.06;5013267;28;103159;-74
2023/02/05 02:14:37;;;;;;;24.27;17.77;;;;;;;2.93;90.87;100652.44;5015031;28;103002;-73
2023/02/05 02:17:07;;;;;;;18.73;12.80;;;;;;;3.02;90.72;100650.59;5011524;28;103733;-74
2023/02/05 02:19:40;;;;;;;12.30;8.57;;;;;;;3.18;90.09;100647.78;5008572;28;103850;-74
2023/02/05 02:22:38;;;;;;;11.73;8.80;;;;;;;3.47;89.22;100640.47;5011983;28;102947;-74
2023/02/05 02:25:32;;;;;;;12.33;8.50;;;;;;;3.66;88.02;100635.84;5013059;28;103320;-74
2023/02/05 02:28:09;;;;;;;12.00;8.53;;;;;;;3.53;86.86;100636.91;5017748;27;104409;-74
2023/02/05 02:30:42;;;;;;;10.47;6.77;;;;;;;3.49;87.91;100635.19;5006435;28;103237;-75
2023/02/05 02:33:16;;;;;;;8.90;6.57;;;;;;;3.50;87.07;100636.94;5005241;28;104170;-73
2023/02/05 02:35:48;;;;;;;9.23;6.90;;;;;;;3.27;89.02;100633.75;5006288;28;102770;-75
2023/02/05 02:38:22;;;;;;;10.77;7.77;;;;;;;3.16;88.81;100638.25;5008660;28;102764;-75
2023/02/05 02:40:54;;;;;;;9.90;6.93;;;;;;;3.03;90.65;100631.44;5008520;28;105256;-74
2023/02/05 02:43:31;;;;;;;8.77;6.40;;;;;;;3.09;90.49;100629.59;5008803;27;104150;-74
2023/02/05 02:46:03;;;;;;;8.80;6.93;;;;;;;3.00;90.37;100632.34;5014355;27;103002;-74
2023/02/05 02:48:34;;;;;;;10.87;7.60;;;;;;;2.96;91.74;100635.00;5012348;28;102774;-73
2023/02/05 02:51:09;;;;;;;7.00;5.50;;;;;;;3.42;90.79;100629.19;5006789;28;103904;-73
2023/02/05 02:53:41;;;;;;;6.33;5.70;;;;;;;3.47;89.33;100618.69;5005811;28;103410;-74
2023/02/05 02:56:12;;;;;;;8.87;6.63;;;;;;;3.48;89.36;100620.44;5002859;28;103026;-74
2023/02/05 02:58:45;;;;;;;8.53;6.63;;;;;;;3.53;88.51;100610.75;5007648;28;103949;-74
2023/02/05 03:01:17;;;;;;;8.13;6.40;;;;;;;3.65;87.50;100613.19;5004970;28;104177;-74
2023/02/05 03:03:52;;;;;;;9.07;6.07;;;;;;;4.03;85.40;100610.00;5010985;28;104266;-74
2023/02/05 03:06:21;;;;;;;8.90;5.73;;;;;;;4.14;84.72;100613.31;5007731;28;102752;-74
2023/02/05 03:08:54;;;;;;;6.80;6.10;;;;;;;3.87;85.20;100604.16;5008486;28;102618;-74
2023/02/05 03:11:22;;;;;;;9.03;6.50;;;;;;;4.17;83.80;100613.28;5011242;28;104216;-74
2023/02/05 03:13:52;;;;;;;9.13;6.23;;;;;;;4.22;84.16;100608.81;5006707;28;103943;-74
2023/02/05 03:16:25;;;;;;;9.57;6.47;;;;;;;3.86;85.51;100617.25;5030065;27;102650;-74
2023/02/05 03:18:57;;;;;;;6.93;5.20;;;;;;;4.14;84.90;100620.28;5006986;28;103591;-73
2023/02/05 03:21:30;;;;;;;9.47;6.80;;;;;;;3.68;85.47;100613.16;5018286;28;103821;-74
2023/02/05 03:23:58;;;;;;;9.63;6.33;;;;;;;3.63;86.45;100614.09;5011344;28;103241;-73
2023/02/05 03:26:29;;;;;;;8.70;6.37;;;;;;;3.55;86.92;100611.59;5020195;28;102713;-74
2023/02/05 03:29:10;;;;;;;7.90;6.43;;;;;;;3.40;87.89;100611.78;5007244;28;102640;-74
2023/02/05 03:31:51;;;;;;;8.83;7.27;;;;;;;3.55;87.79;100609.00;5011322;28;105715;-74
2023/02/05 03:34:31;;;;;;;10.93;6.93;;;;;;;3.80;86.68;100597.28;5014310;27;103209;-74
2023/02/05 03:37:08;;;;;;;8.73;6.00;;;;;;;4.02;85.97;100593.44;5013990;28;102622;-74
2023/02/05 03:39:49;;;;;;;9.37;6.50;;;;;;;4.07;84.33;100581.16;5008727;28;102774;-74
2023/02/05 03:42:30;;;;;;;8.97;7.03;;;;;;;3.96;84.92;100583.06;5010608;28;104997;-74
2023/02/05 03:45:21;;;;;;;9.03;5.60;;;;;;;3.93;84.27;100575.28;5009582;28;103107;-74
2023/02/05 03:48:20;;;;;;;10.93;6.60;;;;;;;3.91;84.50;100582.28;5001508;28;102702;-73
2023/02/05 03:50:55;;;;;;;9.13;7.23;;;;;;;3.73;84.45;100579.97;5019308;27;103819;-73
2023/02/05 03:53:35;;;;;;;12.07;6.37;;;;;;;3.54;86.22;100586.34;5009084;28;105017;-74
2023/02/05 03:56:12;;;;;;;10.13;6.93;;;;;;;3.56;86.38;100588.94;5018454;28;105165;-74
2023/02/05 03:58:43;;;;;;;9.17;6.23;;;;;;;3.71;85.69;100583.47;5026750;27;102754;-74
2023/02/05 04:01:12;;;;;;;8.03;5.70;;;;;;;3.76;85.22;100574.66;5010735;28;104064;-74
2023/02/05 04:03:43;;;;;;;8.50;5.90;;;;;;;3.82;85.17;100573.72;5005510;28;103208;-74
2023/02/05 04:06:12;;;;;;;9.63;6.53;;;;;;;3.82;84.41;100569.34;5004931;28;103265;-76
2023/02/05 04:08:42;;;;;;;9.03;5.77;;;;;;;3.85;84.42;100563.22;5010070;28;102736;-74
2023/02/05 04:11:11;;;;;;;6.83;5.23;;;;;;;4.05;83.72;100561.13;5005249;28;104206;-74
2023/02/05 04:13:40;;;;;;;8.53;5.43;;;;;;;4.09;83.15;100558.47;5006552;28;103748;-75
2023/02/05 04:16:10;;;;;;;7.87;5.00;;;;;;;4.16;82.69;100553.97;5016103;28;103305;-74
2023/02/05 04:18:39;;;;;;;7.80;5.43;;;;;;;4.15;82.37;100564.47;5009336;28;102838;-75
2023/02/05 04:21:08;;;;;;;9.63;6.10;;;;;;;4.06;82.20;100560.25;5006942;28;103835;-74
2023/02/05 04:23:39;;;;;;;7.17;5.20;;;;;;;4.12;81.66;100556.69;5010772;28;105229;-75
2023/02/05 04:26:11;;;;;;;7.67;5.70;;;;;;;4.09;81.74;100552.38;5008678;28;104987;-74
2023/02/05 04:28:45;;;;;;;10.97;6.80;;;;;;;3.95;81.58;100559.56;5013655;28;102826;-74
2023/02/05 04:31:13;;;;;;;6.60;4.97;;;;;;;3.99;82.47;100577.81;5014643;27;103919;-75
2023/02/05 04:33:42;;;;;;;8.57;5.60;;;;;;;4.05;82.36;100559.38;5006292;28;103762;-75
2023/02/05 04:36:14;;;;;;;9.33;6.13;;;;;;;3.99;81.42;100575.19;5017080;28;103238;-75
2023/02/05 04:38:42;;;;;;;13.07;6.63;;;;;;;3.90;81.31;100570.09;5009965;28;102541;-75
2023/02/05 04:41:10;;;;;;;9.10;6.70;;;;;;;3.57;83.84;100562.78;5002952;28;103779;-75
2023/02/05 04:43:38;;;;;;;9.30;6.90;;;;;;;3.12;86.20;100573.84;5014097;28;103839;-75
2023/02/05 04:46:06;;;;;;;10.53;7.03;;;;;;;2.66;87.08;100569.19;5009936;28;103231;-74
2023/02/05 04:48:35;;;;;;;11.10;7.23;;;;;;;2.68;88.17;100579.59;5003566;28;102914;-76
2023/02/05 04:51:06;;;;;;;12.57;7.60;;;;;;;2.62;88.47;100571.84;5016699;28;102756;-75
2023/02/05 04:53:35;;;;;;;9.40;6.77;;;;;;;2.99;88.30;100569.66;5007763;28;103279;-74
2023/02/05 04:56:07;;;;;;;8.17;6.77;;;;;;;2.92;87.46;100569.75;5003538;28;103352;-74
2023/02/05 04:58:34;;;;;;;10.53;7.07;;;;;;;2.66;89.23;100569.19;5017743;28;102626;-75
2023/02/05 05:01:03;;;;;;;10.77;7.40;;;;;;;2.66;89.15;100578.78;5008697;27;102749;-76
2023/02/05 05:03:31;;;;;;;11.07;7.73;;;;;;;2.42;90.42;100574.66;5008152;28;103881;-75
2023/02/05 05:06:04;;;;;;;10.07;6.77;;;;;;;2.98;89.11;100565.31;5007975;28;103245;-75
2023/02/05 05:08:31;;;;;;;12.90;7.40;;;;;;;3.01;88.44;100575.72;5007143;28;102607;-76
2023/02/05 05:11:06;;;;;;;11.23;7.63;;;;;;;2.85;88.48;100583.75;5007992;28;102614;-75
2023/02/05 05:13:34;;;;;;;8.93;7.00;;;;;;;2.92;88.51;100587.16;5009540;28;103298;-75
2023/02/05 05:16:02;;;;;;;10.37;7.87;;;;;;;3.03;87.56;100589.66;5016701;28;103314;-75
2023/02/05 05:18:30;;;;;;;12.93;7.57;;;;;;;2.72;88.88;100589.97;5011799;28;102673;-75
2023/02/05 05:20:58;;;;;;;9.87;7.23;;;;;;;2.90;89.24;100586.31;5007070;28;102715;-76
2023/02/05 05:23:26;;;;;;;13.70;7.70;;;;;;;3.05;88.32;100587.88;5008978;28;104571;-76
2023/02/05 05:25:54;;;;;;;12.47;7.77;;;;;;;2.52;90.07;100599.78;5018907;28;103408;-75
2023/02/05 05:28:23;;;;;;;8.77;7.60;;;;;;;2.66;91.10;100584.84;5010472;28;102592;-75
2023/02/05 05:30:51;;;;;;;11.57;7.33;;;;;;;2.47;91.45;100588.50;5013405;28;103022;-76
2023/02/05 05:33:19;;;;;;;11.33;7.33;;;;;;;2.10;93.35;100593.22;5012647;28;103382;-76
2023/02/05 05:35:46;;;;;;;10.83;7.00;;;;;;;2.36;93.82;100594.75;5008367;28;103323;-74
2023/02/05 05:38:14;;;;;;;9.03;5.77;;;;;;;2.57;92.47;100586.69;5013480;28;102681;-75
2023/02/05 05:43:46;;;;;;;9.10;6.90;;;;;;;2.40;92.24;100592.06;5005452;28;102981;-76
2023/02/05 05:46:21;;;;;;;8.90;6.70;;;;;;;2.45;91.56;100585.06;5012454;28;103365;-77
2023/02/05 05:48:50;;;;;;;7.70;6.47;;;;;;;2.52;91.27;100589.34;5017793;28;102843;-76
2023/02/05 05:51:18;;;;;;;7.37;5.73;;;;;;;2.70;90.71;100580.44;5010685;27;103777;-74
2023/02/05 05:53:47;;;;;;;6.50;5.10;;;;;;;2.91;91.53;100569.78;5017625;28;103996;-77
2023/02/05 05:56:15;;;;;;;6.50;5.17;;;;;;;2.93;90.03;100562.78;5012617;28;103510;-75
2023/02/05 05:58:44;;;;;;;8.43;5.70;;;;;;;2.81;89.98;100553.34;5014631;28;103081;-74
2023/02/05 06:01:13;;;;;;;8.40;6.23;;;;;;;2.84;89.42;100561.13;5013753;28;104373;-75
2023/02/05 06:03:41;;;;;;;10.43;5.07;;;;;;;2.99;89.61;100562.72;5012225;27;102739;-75
2023/02/05 06:06:11;;;;;;;11.30;6.77;;;;;;;2.69;90.53;100576.13;5016671;28;103315;-75
2023/02/05 06:08:39;;;;;;;11.60;7.63;;;;;;;2.30;91.62;100580.84;5010828;27;103163;-75
2023/02/05 06:11:07;;;;;;;9.27;6.40;;;;;;;2.33;92.80;100580.81;5015402;27;104052;-78
2023/02/05 06:13:35;;;;;;;8.33;6.23;;;;;;;2.52;91.95;100578.91;5012705;27;103365;-73
2023/02/05 06:16:05;;;;;;;9.77;6.90;;;;;;;2.49;92.17;100576.34;5010054;28;102748;-81
2023/02/05 06:18:33;;;;;;;11.47;6.43;;;;;;;2.31;92.05;100576.50;5012611;28;102745;-77
2023/02/05 06:21:02;;;;;;;10.87;6.70;;;;;;;2.48;91.77;100569.38;5015069;28;104219;-74
2023/02/05 06:23:32;;;;;;;12.80;6.90;;;;;;;2.32;92.12;100578.25;5014373;28;103266;-74
2023/02/05 06:26:00;;;;;;;9.43;6.10;;;;;;;2.51;92.29;100577.19;5009653;27;103196;-73
2023/02/05 06:28:27;;;;;;;8.83;5.70;;;;;;;2.64;91.49;100576.16;5010993;28;102843;-72
2023/02/05 06:30:55;;;;;;;8.20;6.37;;;;;;;2.77;90.53;100572.56;5014957;27;103030;-75
2023/02/05 06:33:24;;;;;;;6.70;5.00;;;;;;;2.92;90.79;100561.91;5009953;28;103755;-72
2023/02/05 06:35:52;;;;;;;7.13;5.07;;;;;;;2.95;90.05;100561.00;5012381;27;103240;-73
2023/02/05 06:38:20;;;;;;;5.63;4.53;;;;;;;3.09;90.07;100566.91;5014583;27;103399;-74
2023/02/05 06:40:48;;;;;;;8.50;5.73;;;;;;;3.11;88.74;100562.56;5015428;28;103049;-71
2023/02/05 06:43:16;;;;;;;9.83;7.17;;;;;;;2.69;89.59;100563.94;5011579;27;103808;-71
2023/02/05 06:45:44;;;;;;;7.83;5.20;;;;;;;2.98;90.58;100557.47;5010666;27;103231;-72
2023/02/05 06:48:12;;;;;;;7.10;5.83;;;;;;;3.16;90.56;100565.09;5010127;28;102744;-73
2023/02/05 06:50:41;;;;;;;5.60;4.80;;;;;;;3.22;89.98;100575.47;5013452;27;102819;-72
2023/02/05 06:53:09;;;;;;;7.23;5.80;;;;;;;3.33;89.41;100578.81;5005933;27;103340;-86
2023/02/05 06:55:38;;;;;;;8.17;6.70;;;;;;;3.34;88.78;100570.94;5022943;27;103233;-72
2023/02/05 06:58:07;;;;;;;11.23;6.73;;;;;;;3.21;89.13;100571.13;5016544;27;104269;-72
2023/02/05 07:00:35;;;;;;;10.87;6.60;;;;;;;3.40;89.33;100580.44;5012866;27;102823;-72
2023/02/05 07:03:03;;;;;;;8.87;6.40;;;;;;;3.49;89.20;100575.09;5010092;27;104184;-72
2023/02/05 07:05:33;;;;;;;8.67;5.50;;;;;;;3.56;88.67;100581.97;5011178;27;103333;-72
2023/02/05 07:08:05;;;;;;;13.87;7.07;;;;;;;3.55;88.50;100584.59;5014887;27;104994;-71
2023/02/05 07:10:33;;;;;;;13.33;6.60;;;;;;;3.58;88.35;100587.16;5014603;27;102796;-71
2023/02/05 07:13:01;;;;;;;11.20;6.10;;;;;;;3.65;88.12;100592.28;5009883;28;103345;-72
2023/02/05 07:15:31;;;;;;;10.73;6.10;;;;;;;3.74;87.93;100597.38;5012760;27;103184;-71
2023/02/05 07:17:59;;;;;;;8.27;5.40;;;;;;;3.76;88.12;100595.59;5009959;27;103252;-71
2023/02/05 07:20:27;;;;;;;9.07;5.73;;;;;;;3.81;87.64;100583.34;5008238;27;102701;-71
2023/02/05 07:22:55;;;;;;;13.63;7.60;;;;;;;3.82;86.64;100589.41;5010176;27;104422;-75
2023/02/05 07:25:24;;;;;;;11.03;6.17;;;;;;;3.83;87.65;100586.78;5012393;28;103206;-73
2023/02/05 07:27:54;;;;;;;11.43;7.43;;;;;;;3.81;86.84;100588.56;5010826;27;102932;-74
2023/02/05 07:30:22;;;;;;;15.33;8.23;;;;;;;3.82;86.79;100578.94;5015084;27;104029;-74
2023/02/05 07:32:50;;;;;;;13.60;6.87;;;;;;;3.87;86.91;100575.41;5007839;27;104079;-78
2023/02/05 07:35:18;;;;;;;12.63;6.97;;;;;;;3.91;87.21;100573.56;5012403;27;103265;-84
2023/02/05 07:37:45;;;;;;;12.93;7.80;;;;;;;3.75;86.69;100572.97;5016947;28;102775;-85
2023/02/05 07:40:15;;;;;;;11.43;7.70;;;;;;;3.88;87.26;100566.66;5006652;28;102998;-85
2023/02/05 07:42:44;;;;;;;13.43;7.60;;;;;;;3.81;87.91;100564.16;5028168;27;104265;-88
2023/02/05 07:45:13;;;;;;;11.30;7.10;;;;;;;3.84;87.55;100567.59;5017534;27;103285;-86
2023/02/05 07:47:40;;;;;;;12.03;7.67;;;;;;;3.92;87.08;100564.84;5013663;28;102789;-73
2023/02/05 07:50:09;;;;;;;12.17;7.70;;;;;;;3.95;86.28;100563.06;5007188;27;102752;-72
2023/02/05 07:52:36;;;;;;;13.13;7.17;;;;;;;3.98;86.50;100555.16;5011246;28;103392;-71
2023/02/05 07:55:05;;;;;;;12.63;7.40;;;;;;;3.79;86.73;100566.78;5010906;27;103243;-72
2023/02/05 07:57:32;;;;;;;11.23;7.07;;;;;;;3.86;86.97;100568.44;5009822;28;102797;-72
2023/02/05 08:00:02;;;;;;;9.47;7.40;;;;;;;3.90;86.83;100562.25;5012100;28;105029;-72
2023/02/05 08:02:38;;;;;;;10.23;6.70;;;;;;;3.87;87.06;100562.31;5015916;27;104191;-72
2023/02/05 08:05:07;;;;;;;11.93;7.13;;;;;;;3.88;86.51;100556.19;5007677;27;103182;-72
2023/02/05 08:07:36;;;;;;;13.00;7.40;;;;;;;3.93;86.63;100556.97;5005532;28;102821;-72
2023/02/05 08:10:04;;;;;;;11.03;5.73;;;;;;;4.07;86.42;100555.00;5013366;27;104142;-72
2023/02/05 08:12:32;;;;;;;11.30;6.10;;;;;;;4.03;86.36;100555.94;5010762;28;103909;-72
2023/02/05 08:15:00;;;;;;;13.70;7.20;;;;;;;4.09;85.35;100561.09;5006932;27;102848;-72
2023/02/05 08:17:29;;;;;;;10.07;6.00;;;;;;;4.19;85.54;100564.38;5010648;27;102784;-72
2023/02/05 08:19:57;;;;;;;9.13;7.00;;;;;;;4.23;85.40;100558.22;5003465;28;104313;-72
2023/02/05 08:22:25;;;;;;;8.43;5.93;;;;;;;4.30;85.06;100554.59;5020112;27;104278;-72
2023/02/05 08:24:52;;;;;;;9.67;5.83;;;;;;;4.34;84.82;100553.66;5002420;28;104647;-71
2023/02/05 08:27:20;;;;;;;10.03;5.97;;;;;;;4.41;85.05;100555.25;5007051;28;104862;-72
2023/02/05 08:29:48;;;;;;;13.13;7.30;;;;;;;4.29;84.64;100554.63;5001682;28;104364;-71
2023/02/05 08:32:16;;;;;;;9.73;5.70;;;;;;;4.45;85.01;100545.59;5002301;28;104211;-71
2023/02/05 08:34:45;;;;;;;18.60;9.03;;;;;;;4.44;85.20;100549.09;5002535;27;103942;-72
2023/02/05 08:37:13;;;;;;;30.67;12.93;;;;;;;4.49;84.79;100542.88;5005704;28;102802;-72
2023/02/05 08:39:41;;;;;;;16.00;8.17;;;;;;;4.59;84.76;100538.34;5001802;27;103074;-71
2023/02/05 08:42:09;;;;;;;14.80;7.43;;;;;;;4.60;84.97;100540.09;5008970;27;103499;-72
2023/02/05 08:44:36;;;;;;;12.03;7.60;;;;;;;4.68;84.29;100543.44;5009287;28;104481;-71
2023/02/05 08:47:04;;;;;;;13.20;6.47;;;;;;;4.69;84.34;100534.66;5015848;28;102761;-71
2023/02/05 08:49:32;;;;;;;9.10;6.37;;;;;;;4.79;84.20;100530.97;5016088;28;103875;-71
2023/02/05 08:52:01;;;;;;;11.43;6.57;;;;;;;4.98;83.89;100527.09;5013434;28;103869;-72
2023/02/05 08:54:29;;;;;;;14.37;7.23;;;;;;;5.29;81.49;100516.81;5011502;28;103284;-71
2023/02/05 08:56:57;;;;;;;9.83;6.90;;;;;;;5.35;81.40;100513.19;5009014;27;102638;-72
2023/02/05 08:59:25;;;;;;;8.13;6.33;;;;;;;5.45;81.41;100506.81;5015645;28;103580;-71
2023/02/05 09:01:52;;;;;;;7.67;6.00;;;;;;;5.52;81.64;100503.16;5012383;28;103204;-71
2023/02/05 09:04:22;;;;;;;11.20;7.50;;;;;;;5.29;81.57;100501.06;5009663;28;103195;-72
2023/02/05 09:06:50;;;;;;;10.47;6.67;;;;;;;5.40;81.75;100490.34;5009164;28;102684;-73
2023/02/05 09:09:22;;;;;;;8.03;5.93;;;;;;;5.52;81.97;100496.16;5006965;28;104065;-73
2023/02/05 09:11:50;;;;;;;9.33;6.00;;;;;;;5.56;81.48;100494.31;5002695;27;103256;-73
2023/02/05 09:14:18;;;;;;;12.53;6.93;;;;;;;5.50;82.52;100490.06;4999892;28;104092;-73
2023/02/05 09:16:45;;;;;;;9.10;6.93;;;;;;;5.60;81.84;100485.50;5002474;28;102679;-73
2023/02/05 09:19:13;;;;;;;10.73;6.57;;;;;;;5.57;82.56;100481.19;4999044;28;103106;-73
2023/02/05 09:21:41;;;;;;;12.47;6.43;;;;;;;5.63;82.59;100483.66;5000724;28;103366;-73
2023/02/05 09:24:09;;;;;;;7.07;5.40;;;;;;;5.71;82.33;100483.47;5005417;27;103242;-72
2023/02/05 09:26:38;;;;;;;9.27;6.73;;;;;;;5.64;83.26;100481.91;4996597;27;102750;-73
2023/02/05 09:29:06;;;;;;;12.20;7.70;;;;;;;5.45;84.46;100473.59;5005313;28;103927;-73
2023/02/05 09:31:34;;;;;;;10.03;7.13;;;;;;;5.42;85.18;100450.09;5021902;27;103541;-73
2023/02/05 09:34:03;;;;;;;15.20;7.57;;;;;;;5.21;86.36;100454.09;5004455;28;103252;-73
2023/02/05 09:36:30;;;;;;;10.27;7.20;;;;;;;5.11;88.54;100444.69;5004864;28;104774;-72
2023/02/05 09:38:58;;;;;;;15.00;7.90;;;;;;;5.03;88.45;100444.00;5019810;27;104100;-72
2023/02/05 09:41:53;;;;;;;9.97;7.33;;;;;;;5.05;88.29;100452.69;5009084;28;103386;-73
2023/02/05 09:44:40;;;;;;;12.43;7.87;;;;;;;5.02;87.98;100455.41;5014731;28;103217;-73
2023/02/05 09:47:15;;;;;;;9.40;6.57;;;;;;;4.96;88.70;100450.28;5011735;27;102628;-73
2023/02/05 09:49:52;;;;;;;11.00;7.27;;;;;;;5.10;88.80;100448.22;5010563;28;102653;-73
2023/02/05 09:52:22;;;;;;;9.53;7.83;;;;;;;5.20;88.06;100454.97;5014845;27;103193;-72
2023/02/05 09:54:54;;;;;;;13.63;8.20;;;;;;;5.10;87.83;100448.22;5008592;28;103211;-73
2023/02/05 09:57:32;;;;;;;14.37;7.93;;;;;;;5.12;88.68;100450.81;5014763;28;102969;-72
2023/02/05 10:00:00;;;;;;;9.23;6.83;;;;;;;5.23;87.95;100460.16;5008009;28;104200;-72
2023/02/05 10:02:35;;;;;;;13.37;8.03;;;;;;;5.22;88.25;100442.69;5012009;28;103855;-72
2023/02/05 10:05:05;;;;;;;10.40;7.43;;;;;;;5.25;87.79;100440.00;5008727;27;103262;-73
2023/02/05 10:07:42;;;;;;;11.13;8.27;;;;;;;5.28;88.46;100435.59;5008399;27;102651;-72
2023/02/05 10:10:23;;;;;;;13.73;8.67;;;;;;;5.25;88.06;100440.00;5010036;27;102711;-73
2023/02/05 10:13:23;;;;;;;11.53;8.30;;;;;;;5.47;88.44;100429.00;5010742;27;104302;-73
2023/02/05 10:16:09;;;;;;;14.87;8.03;;;;;;;5.50;87.65;100439.44;5005203;28;103313;-72
2023/02/05 10:18:51;;;;;;;14.37;8.93;;;;;;;5.54;87.88;100433.19;5003515;28;102766;-74
2023/02/05 10:21:35;;;;;;;14.03;7.77;;;;;;;5.54;89.29;100433.19;5004455;27;103752;-72
2023/02/05 10:24:28;;;;;;;12.97;8.50;;;;;;;5.39;89.68;100428.34;4999525;27;103344;-73
2023/02/05 10:27:06;;;;;;;8.60;6.50;;;;;;;5.40;89.21;100433.53;5001096;28;103170;-75
2023/02/05 10:29:43;;;;;;;14.67;8.20;;;;;;;5.59;89.16;100426.06;5026443;27;102861;-72
2023/02/05 10:32:20;;;;;;;13.63;9.33;;;;;;;5.43;89.21;100419.50;5004963;28;104314;-72
2023/02/05 10:34:58;;;;;;;13.50;8.13;;;;;;;5.49;89.93;100424.59;5006616;28;104221;-72
2023/02/05 10:37:36;;;;;;;10.77;7.60;;;;;;;5.56;90.05;100420.91;5007816;28;103199;-72
2023/02/05 10:40:13;;;;;;;9.53;6.77;;;;;;;5.60;89.92;100407.69;5006161;28;102778;-72
2023/02/05 10:42:46;;;;;;;10.50;7.53;;;;;;;5.72;89.76;100403.91;5011095;28;104659;-71
2023/02/05 10:45:20;;;;;;;12.63;8.73;;;;;;;5.55;90.13;100398.22;5011186;28;103285;-71
2023/02/05 10:48:00;;;;;;;15.27;9.13;;;;;;;5.55;90.39;100404.34;5006199;28;103233;-70
2023/02/05 10:50:36;;;;;;;8.97;7.57;;;;;;;5.54;90.15;100401.72;5008943;28;102759;-72
2023/02/05 10:53:04;;;;;;;13.13;8.07;;;;;;;5.45;90.42;100391.47;5011593;28;104108;-74
2023/02/05 10:55:32;;;;;;;15.33;9.70;;;;;;;5.60;90.67;100393.72;5006034;27;103287;-71
2023/02/05 10:58:07;;;;;;;16.10;9.67;;;;;;;5.61;89.67;100392.81;5007370;27;104141;-71
2023/02/05 11:00:36;;;;;;;11.23;8.77;;;;;;;5.75;91.04;100390.72;5010962;27;103004;-74
2023/02/05 11:03:05;;;;;;;15.13;9.53;;;;;;;5.57;90.07;100392.03;5016586;28;102852;-73
2023/02/05 11:05:38;;;;;;;20.33;13.07;;;;;;;5.64;90.92;100379.63;5003319;28;103251;-72
2023/02/05 11:08:34;;;;;;;13.97;9.87;;;;;;;5.70;90.59;100387.31;5012571;28;104377;-78
2023/02/05 11:11:05;;;;;;;11.50;9.10;;;;;;;5.85;90.46;100379.09;5011788;28;102652;-74
2023/02/05 11:13:48;;;;;;;13.33;9.67;;;;;;;5.82;89.86;100382.63;5014221;27;102828;-74
2023/02/05 11:16:17;;;;;;;13.87;9.30;;;;;;;5.86;89.69;100378.19;5014382;27;103386;-75
2023/02/05 11:18:55;;;;;;;15.03;8.53;;;;;;;5.87;90.75;100365.94;5010638;27;103195;-76
2023/02/05 11:21:22;;;;;;;16.10;10.90;;;;;;;5.90;89.90;100353.59;5016049;28;102729;-73
2023/02/05 11:23:55;;;;;;;13.57;8.57;;;;;;;5.92;90.47;100357.06;5013665;27;104030;-75
2023/02/05 11:26:26;;;;;;;12.77;9.57;;;;;;;5.91;91.12;100355.31;5013397;27;103882;-75
2023/02/05 11:28:54;;;;;;;14.93;9.97;;;;;;;5.97;90.82;100339.41;5007950;28;103172;-74
2023/02/05 11:31:29;;;;;;;13.60;10.20;;;;;;;6.10;90.89;100343.41;5012694;27;102682;-73
2023/02/05 11:34:11;;;;;;;15.87;10.20;;;;;;;6.06;91.07;100336.53;5010694;27;103844;-74
2023/02/05 11:36:48;;;;;;;10.97;8.63;;;;;;;6.36;90.76;100338.28;5010152;27;104347;-71
2023/02/05 11:39:28;;;;;;;16.87;9.23;;;;;;;6.34;90.08;100340.06;5011605;28;103294;-72